sensor_id;sensor_type;location;lat;lon;timestamp;P1;durP1;ratioP1;P2;durP2;ratioP2
51746;SDS011;37825;40.088;18.302;2023-01-15T00:00:01;25.63;;;20.33;;
51746;SDS011;37825;40.088;18.302;2023-01-15T00:02:31;18.13;;;15.90;;
51746;SDS011;37825;40.088;18.302;2023-01-15T00:04:59;21.00;;;15.80;;
51746;SDS011;37825;40.088;18.302;2023-01-15T00:07:29;23.60;;;16.67;;
51746;SDS011;37825;40.088;18.302;2023-01-15T00:09:58;24.10;;;18.73;;
51746;SDS011;37825;40.088;18.302;2023-01-15T00:12:26;21.80;;;17.33;;
51746;SDS011;37825;40.088;18.302;2023-01-15T00:14:55;21.00;;;17.43;;
51746;SDS011;37825;40.088;18.302;2023-01-15T00:17:24;21.50;;;17.20;;
51746;SDS011;37825;40.088;18.302;2023-01-15T00:19:52;18.70;;;14.93;;
51746;SDS011;37825;40.088;18.302;2023-01-15T00:22:20;19.70;;;15.33;;
51746;SDS011;37825;40.088;18.302;2023-01-15T00:24:49;23.17;;;17.40;;
51746;SDS011;37825;40.088;18.302;2023-01-15T00:27:36;20.37;;;15.80;;
51746;SDS011;37825;40.088;18.302;2023-01-15T00:30:05;21.13;;;17.03;;
51746;SDS011;37825;40.088;18.302;2023-01-15T00:32:37;21.17;;;17.90;;
51746;SDS011;37825;40.088;18.302;2023-01-15T00:35:05;15.30;;;12.60;;
51746;SDS011;37825;40.088;18.302;2023-01-15T00:37:33;16.87;;;13.27;;
51746;SDS011;37825;40.088;18.302;2023-01-15T00:40:02;19.60;;;14.23;;
51746;SDS011;37825;40.088;18.302;2023-01-15T00:42:30;22.40;;;14.27;;
51746;SDS011;37825;40.088;18.302;2023-01-15T00:44:58;21.43;;;18.07;;
51746;SDS011;37825;40.088;18.302;2023-01-15T00:47:34;17.53;;;14.90;;
51746;SDS011;37825;40.088;18.302;2023-01-15T00:50:03;16.93;;;15.00;;
51746;SDS011;37825;40.088;18.302;2023-01-15T00:52:31;21.47;;;15.83;;
51746;SDS011;37825;40.088;18.302;2023-01-15T00:55:00;21.20;;;15.97;;
51746;SDS011;37825;40.088;18.302;2023-01-15T00:57:29;21.10;;;15.43;;
51746;SDS011;37825;40.088;18.302;2023-01-15T00:59:58;22.87;;;17.00;;
51746;SDS011;37825;40.088;18.302;2023-01-15T01:02:26;22.50;;;16.87;;
51746;SDS011;37825;40.088;18.302;2023-01-15T01:04:55;25.40;;;15.67;;
51746;SDS011;37825;40.088;18.302;2023-01-15T01:07:23;18.73;;;15.17;;
51746;SDS011;37825;40.088;18.302;2023-01-15T01:09:51;17.57;;;13.83;;
51746;SDS011;37825;40.088;18.302;2023-01-15T01:12:20;18.63;;;14.00;;
51746;SDS011;37825;40.088;18.302;2023-01-15T01:14:51;23.23;;;14.85;;
51746;SDS011;37825;40.088;18.302;2023-01-15T01:17:19;20.37;;;15.10;;
51746;SDS011;37825;40.088;18.302;2023-01-15T01:19:47;19.13;;;13.60;;
51746;SDS011;37825;40.088;18.302;2023-01-15T01:22:16;18.60;;;14.23;;
51746;SDS011;37825;40.088;18.302;2023-01-15T01:24:44;20.40;;;14.93;;
51746;SDS011;37825;40.088;18.302;2023-01-15T01:27:12;20.63;;;14.90;;
51746;SDS011;37825;40.088;18.302;2023-01-15T01:29:43;22.07;;;15.83;;
51746;SDS011;37825;40.088;18.302;2023-01-15T01:32:11;16.90;;;14.00;;
51746;SDS011;37825;40.088;18.302;2023-01-15T01:34:39;18.17;;;14.53;;
51746;SDS011;37825;40.088;18.302;2023-01-15T01:37:08;20.50;;;17.00;;
51746;SDS011;37825;40.088;18.302;2023-01-15T01:39:36;21.80;;;15.23;;
51746;SDS011;37825;40.088;18.302;2023-01-15T01:42:10;21.00;;;15.63;;
51746;SDS011;37825;40.088;18.302;2023-01-15T01:47:08;21.47;;;15.67;;
51746;SDS011;37825;40.088;18.302;2023-01-15T01:49:37;23.97;;;16.57;;
51746;SDS011;37825;40.088;18.302;2023-01-15T01:52:14;26.10;;;17.40;;
51746;SDS011;37825;40.088;18.302;2023-01-15T01:54:43;22.30;;;16.83;;
51746;SDS011;37825;40.088;18.302;2023-01-15T01:57:13;21.87;;;15.53;;
51746;SDS011;37825;40.088;18.302;2023-01-15T01:59:43;23.30;;;15.33;;
51746;SDS011;37825;40.088;18.302;2023-01-15T02:02:11;24.63;;;16.03;;
51746;SDS011;37825;40.088;18.302;2023-01-15T02:04:40;24.57;;;16.87;;
51746;SDS011;37825;40.088;18.302;2023-01-15T02:07:09;23.63;;;16.13;;
51746;SDS011;37825;40.088;18.302;2023-01-15T02:09:38;19.70;;;16.27;;
51746;SDS011;37825;40.088;18.302;2023-01-15T02:12:08;23.40;;;16.73;;
51746;SDS011;37825;40.088;18.302;2023-01-15T02:14:49;25.17;;;17.98;;
51746;SDS011;37825;40.088;18.302;2023-01-15T02:17:32;21.80;;;17.50;;
51746;SDS011;37825;40.088;18.302;2023-01-15T02:27:50;26.73;;;17.80;;
51746;SDS011;37825;40.088;18.302;2023-01-15T02:30:58;24.90;;;18.13;;
51746;SDS011;37825;40.088;18.302;2023-01-15T02:33:19;25.60;;;18.57;;
51746;SDS011;37825;40.088;18.302;2023-01-15T02:35:55;22.65;;;17.75;;
51746;SDS011;37825;40.088;18.302;2023-01-15T02:38:31;26.23;;;18.75;;
51746;SDS011;37825;40.088;18.302;2023-01-15T02:41:02;26.77;;;18.20;;
51746;SDS011;37825;40.088;18.302;2023-01-15T02:43:37;20.27;;;16.73;;
51746;SDS011;37825;40.088;18.302;2023-01-15T02:46:07;29.03;;;18.77;;
51746;SDS011;37825;40.088;18.302;2023-01-15T02:48:37;22.30;;;16.60;;
51746;SDS011;37825;40.088;18.302;2023-01-15T02:51:09;21.07;;;15.87;;
51746;SDS011;37825;40.088;18.302;2023-01-15T02:53:40;27.20;;;17.87;;
51746;SDS011;37825;40.088;18.302;2023-01-15T02:56:17;22.60;;;16.58;;
51746;SDS011;37825;40.088;18.302;2023-01-15T02:58:51;25.93;;;17.17;;
51746;SDS011;37825;40.088;18.302;2023-01-15T03:01:26;24.57;;;17.90;;
51746;SDS011;37825;40.088;18.302;2023-01-15T03:03:58;27.07;;;17.83;;
51746;SDS011;37825;40.088;18.302;2023-01-15T03:06:36;24.93;;;18.07;;
51746;SDS011;37825;40.088;18.302;2023-01-15T03:09:05;32.33;;;20.13;;
51746;SDS011;37825;40.088;18.302;2023-01-15T03:11:36;24.03;;;19.47;;
51746;SDS011;37825;40.088;18.302;2023-01-15T03:14:13;28.77;;;18.50;;
51746;SDS011;37825;40.088;18.302;2023-01-15T03:22:11;26.87;;;19.13;;
51746;SDS011;37825;40.088;18.302;2023-01-15T03:27:08;28.90;;;21.13;;
51746;SDS011;37825;40.088;18.302;2023-01-15T03:29:41;28.98;;;19.10;;
51746;SDS011;37825;40.088;18.302;2023-01-15T03:32:10;26.77;;;18.27;;
51746;SDS011;37825;40.088;18.302;2023-01-15T03:34:51;26.70;;;19.07;;
51746;SDS011;37825;40.088;18.302;2023-01-15T03:37:21;26.63;;;17.57;;
51746;SDS011;37825;40.088;18.302;2023-01-15T03:39:52;28.88;;;19.30;;
51746;SDS011;37825;40.088;18.302;2023-01-15T03:42:34;24.73;;;16.53;;
51746;SDS011;37825;40.088;18.302;2023-01-15T03:52:47;17.33;;;14.20;;
51746;SDS011;37825;40.088;18.302;2023-01-15T03:55:24;21.63;;;15.43;;
51746;SDS011;37825;40.088;18.302;2023-01-15T03:58:05;17.00;;;12.97;;
51746;SDS011;37825;40.088;18.302;2023-01-15T04:00:43;23.20;;;14.40;;
51746;SDS011;37825;40.088;18.302;2023-01-15T04:03:15;16.50;;;13.60;;
51746;SDS011;37825;40.088;18.302;2023-01-15T04:05:45;25.13;;;16.60;;
51746;SDS011;37825;40.088;18.302;2023-01-15T04:08:16;17.90;;;13.03;;
51746;SDS011;37825;40.088;18.302;2023-01-15T04:10:54;14.18;;;11.48;;
51746;SDS011;37825;40.088;18.302;2023-01-15T04:13:25;22.47;;;16.57;;
51746;SDS011;37825;40.088;18.302;2023-01-15T04:18:25;19.87;;;16.40;;
51746;SDS011;37825;40.088;18.302;2023-01-15T04:20:53;21.67;;;14.80;;
51746;SDS011;37825;40.088;18.302;2023-01-15T04:23:22;20.17;;;15.27;;
51746;SDS011;37825;40.088;18.302;2023-01-15T04:25:50;19.67;;;12.97;;
51746;SDS011;37825;40.088;18.302;2023-01-15T04:28:19;17.70;;;12.20;;
51746;SDS011;37825;40.088;18.302;2023-01-15T04:30:47;22.53;;;13.27;;
51746;SDS011;37825;40.088;18.302;2023-01-15T04:33:15;15.23;;;10.43;;
51746;SDS011;37825;40.088;18.302;2023-01-15T04:35:44;13.43;;;11.17;;
51746;SDS011;37825;40.088;18.302;2023-01-15T04:38:13;17.13;;;12.13;;
51746;SDS011;37825;40.088;18.302;2023-01-15T04:40:42;19.60;;;13.80;;
51746;SDS011;37825;40.088;18.302;2023-01-15T04:43:29;19.50;;;16.37;;
51746;SDS011;37825;40.088;18.302;2023-01-15T04:46:19;18.57;;;14.93;;
51746;SDS011;37825;40.088;18.302;2023-01-15T04:48:47;21.27;;;15.13;;
51746;SDS011;37825;40.088;18.302;2023-01-15T04:51:15;23.50;;;15.57;;
51746;SDS011;37825;40.088;18.302;2023-01-15T04:53:44;20.87;;;15.27;;
51746;SDS011;37825;40.088;18.302;2023-01-15T04:56:12;23.90;;;16.00;;
51746;SDS011;37825;40.088;18.302;2023-01-15T04:58:40;23.13;;;15.87;;
51746;SDS011;37825;40.088;18.302;2023-01-15T05:01:12;21.03;;;17.93;;
51746;SDS011;37825;40.088;18.302;2023-01-15T05:03:40;23.17;;;16.10;;
51746;SDS011;37825;40.088;18.302;2023-01-15T05:06:09;21.10;;;17.47;;
51746;SDS011;37825;40.088;18.302;2023-01-15T05:08:40;25.00;;;16.75;;
51746;SDS011;37825;40.088;18.302;2023-01-15T05:11:08;24.13;;;18.17;;
51746;SDS011;37825;40.088;18.302;2023-01-15T05:13:36;27.73;;;20.73;;
51746;SDS011;37825;40.088;18.302;2023-01-15T05:16:13;26.07;;;19.03;;
51746;SDS011;37825;40.088;18.302;2023-01-15T05:18:42;26.63;;;20.00;;
51746;SDS011;37825;40.088;18.302;2023-01-15T05:21:17;25.70;;;19.57;;
51746;SDS011;37825;40.088;18.302;2023-01-15T05:23:47;25.00;;;18.93;;
51746;SDS011;37825;40.088;18.302;2023-01-15T05:26:17;30.80;;;18.43;;
51746;SDS011;37825;40.088;18.302;2023-01-15T05:28:45;28.60;;;17.13;;
51746;SDS011;37825;40.088;18.302;2023-01-15T05:31:14;24.30;;;18.33;;
51746;SDS011;37825;40.088;18.302;2023-01-15T05:33:44;19.77;;;12.00;;
51746;SDS011;37825;40.088;18.302;2023-01-15T05:36:14;19.93;;;15.13;;
51746;SDS011;37825;40.088;18.302;2023-01-15T05:38:43;22.27;;;16.23;;
51746;SDS011;37825;40.088;18.302;2023-01-15T05:41:13;22.07;;;13.83;;
51746;SDS011;37825;40.088;18.302;2023-01-15T05:44:01;21.30;;;14.50;;
51746;SDS011;37825;40.088;18.302;2023-01-15T05:46:30;21.63;;;14.57;;
51746;SDS011;37825;40.088;18.302;2023-01-15T05:49:03;21.67;;;14.40;;
51746;SDS011;37825;40.088;18.302;2023-01-15T05:51:33;22.70;;;15.80;;
51746;SDS011;37825;40.088;18.302;2023-01-15T05:54:02;21.87;;;15.00;;
51746;SDS011;37825;40.088;18.302;2023-01-15T05:56:33;20.17;;;16.47;;
51746;SDS011;37825;40.088;18.302;2023-01-15T05:59:03;21.30;;;16.42;;
51746;SDS011;37825;40.088;18.302;2023-01-15T06:01:31;21.37;;;16.13;;
51746;SDS011;37825;40.088;18.302;2023-01-15T06:04:00;20.87;;;15.20;;
51746;SDS011;37825;40.088;18.302;2023-01-15T06:06:30;22.23;;;14.47;;
51746;SDS011;37825;40.088;18.302;2023-01-15T06:08:59;19.47;;;14.63;;
51746;SDS011;37825;40.088;18.302;2023-01-15T06:11:27;18.90;;;13.40;;
51746;SDS011;37825;40.088;18.302;2023-01-15T06:13:55;21.37;;;14.50;;
51746;SDS011;37825;40.088;18.302;2023-01-15T06:16:23;20.33;;;13.80;;
51746;SDS011;37825;40.088;18.302;2023-01-15T06:18:52;19.90;;;14.10;;
51746;SDS011;37825;40.088;18.302;2023-01-15T06:21:20;17.07;;;14.03;;
51746;SDS011;37825;40.088;18.302;2023-01-15T06:23:48;17.57;;;12.43;;
51746;SDS011;37825;40.088;18.302;2023-01-15T06:26:20;15.02;;;11.60;;
51746;SDS011;37825;40.088;18.302;2023-01-15T06:28:48;15.27;;;11.30;;
51746;SDS011;37825;40.088;18.302;2023-01-15T06:31:18;20.37;;;13.47;;
51746;SDS011;37825;40.088;18.302;2023-01-15T06:33:46;17.73;;;13.17;;
51746;SDS011;37825;40.088;18.302;2023-01-15T06:36:16;18.17;;;11.57;;
51746;SDS011;37825;40.088;18.302;2023-01-15T06:38:47;18.20;;;13.70;;
51746;SDS011;37825;40.088;18.302;2023-01-15T06:41:17;18.03;;;11.80;;
51746;SDS011;37825;40.088;18.302;2023-01-15T06:44:08;19.90;;;13.37;;
51746;SDS011;37825;40.088;18.302;2023-01-15T06:46:56;17.97;;;12.83;;
51746;SDS011;37825;40.088;18.302;2023-01-15T06:49:43;17.33;;;13.40;;
51746;SDS011;37825;40.088;18.302;2023-01-15T06:52:12;15.07;;;12.00;;
51746;SDS011;37825;40.088;18.302;2023-01-15T06:54:40;21.17;;;13.20;;
51746;SDS011;37825;40.088;18.302;2023-01-15T06:57:09;17.27;;;13.13;;
51746;SDS011;37825;40.088;18.302;2023-01-15T06:59:37;22.33;;;13.90;;
51746;SDS011;37825;40.088;18.302;2023-01-15T07:02:06;15.53;;;12.37;;
51746;SDS011;37825;40.088;18.302;2023-01-15T07:04:34;16.90;;;14.60;;
51746;SDS011;37825;40.088;18.302;2023-01-15T07:07:03;18.83;;;13.00;;
51746;SDS011;37825;40.088;18.302;2023-01-15T07:09:31;22.03;;;13.87;;
51746;SDS011;37825;40.088;18.302;2023-01-15T07:12:00;18.10;;;12.23;;
51746;SDS011;37825;40.088;18.302;2023-01-15T07:14:28;15.93;;;10.87;;
51746;SDS011;37825;40.088;18.302;2023-01-15T07:16:58;20.83;;;15.17;;
51746;SDS011;37825;40.088;18.302;2023-01-15T07:19:26;19.77;;;15.03;;
51746;SDS011;37825;40.088;18.302;2023-01-15T07:21:54;19.23;;;15.20;;
51746;SDS011;37825;40.088;18.302;2023-01-15T07:24:23;21.63;;;16.57;;
51746;SDS011;37825;40.088;18.302;2023-01-15T07:26:51;26.87;;;17.70;;
51746;SDS011;37825;40.088;18.302;2023-01-15T07:29:20;38.00;;;25.37;;
51746;SDS011;37825;40.088;18.302;2023-01-15T07:31:49;239.03;;;140.03;;
51746;SDS011;37825;40.088;18.302;2023-01-15T07:34:18;61.20;;;45.57;;
51746;SDS011;37825;40.088;18.302;2023-01-15T07:36:46;37.63;;;28.13;;
51746;SDS011;37825;40.088;18.302;2023-01-15T07:39:15;33.77;;;26.23;;
51746;SDS011;37825;40.088;18.302;2023-01-15T07:41:43;33.27;;;26.17;;
51746;SDS011;37825;40.088;18.302;2023-01-15T07:44:33;29.50;;;22.53;;
51746;SDS011;37825;40.088;18.302;2023-01-15T07:47:21;27.23;;;20.17;;
51746;SDS011;37825;40.088;18.302;2023-01-15T07:50:12;23.53;;;20.10;;
51746;SDS011;37825;40.088;18.302;2023-01-15T07:52:40;25.63;;;20.80;;
51746;SDS011;37825;40.088;18.302;2023-01-15T07:55:09;24.47;;;20.07;;
51746;SDS011;37825;40.088;18.302;2023-01-15T07:57:41;22.47;;;18.37;;
51746;SDS011;37825;40.088;18.302;2023-01-15T08:00:11;21.73;;;17.50;;
51746;SDS011;37825;40.088;18.302;2023-01-15T08:02:40;21.20;;;17.03;;
51746;SDS011;37825;40.088;18.302;2023-01-15T08:05:08;22.87;;;18.07;;
51746;SDS011;37825;40.088;18.302;2023-01-15T08:07:39;23.20;;;19.23;;
51746;SDS011;37825;40.088;18.302;2023-01-15T08:10:08;21.30;;;16.27;;
51746;SDS011;37825;40.088;18.302;2023-01-15T08:12:36;23.07;;;15.07;;
51746;SDS011;37825;40.088;18.302;2023-01-15T08:15:24;17.77;;;13.57;;
51746;SDS011;37825;40.088;18.302;2023-01-15T08:17:53;18.47;;;16.60;;
51746;SDS011;37825;40.088;18.302;2023-01-15T08:20:22;17.83;;;14.03;;
51746;SDS011;37825;40.088;18.302;2023-01-15T08:22:50;19.47;;;12.73;;
51746;SDS011;37825;40.088;18.302;2023-01-15T08:25:20;13.40;;;11.97;;
51746;SDS011;37825;40.088;18.302;2023-01-15T08:27:48;14.17;;;11.17;;
51746;SDS011;37825;40.088;18.302;2023-01-15T08:30:18;24.77;;;17.37;;
51746;SDS011;37825;40.088;18.302;2023-01-15T08:32:47;13.93;;;12.53;;
51746;SDS011;37825;40.088;18.302;2023-01-15T08:35:15;14.47;;;11.23;;
51746;SDS011;37825;40.088;18.302;2023-01-15T08:37:43;16.77;;;12.87;;
51746;SDS011;37825;40.088;18.302;2023-01-15T08:40:12;13.80;;;10.37;;
51746;SDS011;37825;40.088;18.302;2023-01-15T08:42:40;12.07;;;10.77;;
51746;SDS011;37825;40.088;18.302;2023-01-15T08:45:09;21.40;;;14.43;;
51746;SDS011;37825;40.088;18.302;2023-01-15T08:47:37;19.83;;;15.00;;
51746;SDS011;37825;40.088;18.302;2023-01-15T08:50:05;16.83;;;14.97;;
51746;SDS011;37825;40.088;18.302;2023-01-15T08:52:35;17.17;;;12.57;;
51746;SDS011;37825;40.088;18.302;2023-01-15T08:55:05;19.58;;;13.57;;
51746;SDS011;37825;40.088;18.302;2023-01-15T08:57:34;15.13;;;13.52;;
51746;SDS011;37825;40.088;18.302;2023-01-15T09:00:02;13.70;;;12.27;;
51746;SDS011;37825;40.088;18.302;2023-01-15T09:02:31;14.20;;;10.88;;
51746;SDS011;37825;40.088;18.302;2023-01-15T09:04:59;15.00;;;10.90;;
51746;SDS011;37825;40.088;18.302;2023-01-15T09:07:27;14.00;;;10.68;;
51746;SDS011;37825;40.088;18.302;2023-01-15T09:09:56;10.60;;;8.98;;
51746;SDS011;37825;40.088;18.302;2023-01-15T09:12:25;10.63;;;9.13;;
51746;SDS011;37825;40.088;18.302;2023-01-15T09:14:53;13.57;;;10.43;;
51746;SDS011;37825;40.088;18.302;2023-01-15T09:17:23;15.40;;;12.15;;
51746;SDS011;37825;40.088;18.302;2023-01-15T09:19:51;14.77;;;9.52;;
51746;SDS011;37825;40.088;18.302;2023-01-15T09:22:19;10.25;;;8.52;;
51746;SDS011;37825;40.088;18.302;2023-01-15T09:24:47;12.45;;;9.55;;
51746;SDS011;37825;40.088;18.302;2023-01-15T09:27:16;11.48;;;8.27;;
51746;SDS011;37825;40.088;18.302;2023-01-15T09:29:45;8.38;;;7.35;;
51746;SDS011;37825;40.088;18.302;2023-01-15T09:32:13;6.75;;;5.88;;
51746;SDS011;37825;40.088;18.302;2023-01-15T09:34:41;7.65;;;6.28;;
51746;SDS011;37825;40.088;18.302;2023-01-15T09:37:09;9.70;;;7.15;;
51746;SDS011;37825;40.088;18.302;2023-01-15T09:39:38;14.77;;;10.98;;
51746;SDS011;37825;40.088;18.302;2023-01-15T09:44:50;8.15;;;6.32;;
51746;SDS011;37825;40.088;18.302;2023-01-15T09:47:26;8.60;;;7.22;;
51746;SDS011;37825;40.088;18.302;2023-01-15T09:53:15;11.05;;;7.80;;
51746;SDS011;37825;40.088;18.302;2023-01-15T09:58:14;8.23;;;7.13;;
51746;SDS011;37825;40.088;18.302;2023-01-15T10:00:46;10.25;;;5.78;;
51746;SDS011;37825;40.088;18.302;2023-01-15T10:06:07;7.82;;;5.35;;
51746;SDS011;37825;40.088;18.302;2023-01-15T10:08:38;4.25;;;3.78;;
51746;SDS011;37825;40.088;18.302;2023-01-15T10:16:19;3.85;;;3.28;;
51746;SDS011;37825;40.088;18.302;2023-01-15T10:18:49;4.68;;;4.20;;
51746;SDS011;37825;40.088;18.302;2023-01-15T10:23:58;6.32;;;5.22;;
51746;SDS011;37825;40.088;18.302;2023-01-15T10:29:08;11.77;;;10.10;;
51746;SDS011;37825;40.088;18.302;2023-01-15T10:34:52;9.45;;;8.10;;
51746;SDS011;37825;40.088;18.302;2023-01-15T10:40:17;6.53;;;5.15;;
51746;SDS011;37825;40.088;18.302;2023-01-15T10:45:31;20.08;;;14.13;;
51746;SDS011;37825;40.088;18.302;2023-01-15T10:50:49;10.85;;;8.27;;
51746;SDS011;37825;40.088;18.302;2023-01-15T10:56:09;11.17;;;10.07;;
51746;SDS011;37825;40.088;18.302;2023-01-15T11:01:11;9.73;;;8.13;;
51746;SDS011;37825;40.088;18.302;2023-01-15T11:03:41;9.13;;;4.22;;
51746;SDS011;37825;40.088;18.302;2023-01-15T11:06:13;24.75;;;20.65;;
51746;SDS011;37825;40.088;18.302;2023-01-15T11:08:43;43.42;;;36.28;;
51746;SDS011;37825;40.088;18.302;2023-01-15T11:11:52;17.33;;;15.53;;
51746;SDS011;37825;40.088;18.302;2023-01-15T11:14:37;11.38;;;9.88;;
51746;SDS011;37825;40.088;18.302;2023-01-15T11:17:31;14.65;;;11.15;;
51746;SDS011;37825;40.088;18.302;2023-01-15T11:20:28;10.23;;;8.52;;
51746;SDS011;37825;40.088;18.302;2023-01-15T11:23:14;10.20;;;9.20;;
51746;SDS011;37825;40.088;18.302;2023-01-15T11:25:52;13.75;;;10.05;;
51746;SDS011;37825;40.088;18.302;2023-01-15T11:28:31;19.90;;;16.80;;
51746;SDS011;37825;40.088;18.302;2023-01-15T11:31:01;8.32;;;7.55;;
51746;SDS011;37825;40.088;18.302;2023-01-15T11:33:30;5.15;;;4.25;;
51746;SDS011;37825;40.088;18.302;2023-01-15T11:36:00;8.40;;;6.07;;
51746;SDS011;37825;40.088;18.302;2023-01-15T11:38:45;9.77;;;7.05;;
51746;SDS011;37825;40.088;18.302;2023-01-15T11:41:22;9.05;;;7.45;;
51746;SDS011;37825;40.088;18.302;2023-01-15T11:43:57;8.82;;;7.93;;
51746;SDS011;37825;40.088;18.302;2023-01-15T11:46:44;6.93;;;5.60;;
51746;SDS011;37825;40.088;18.302;2023-01-15T11:49:32;8.10;;;7.28;;
51746;SDS011;37825;40.088;18.302;2023-01-15T11:52:19;8.05;;;7.25;;
51746;SDS011;37825;40.088;18.302;2023-01-15T11:54:52;7.23;;;4.77;;
51746;SDS011;37825;40.088;18.302;2023-01-15T11:57:24;7.68;;;5.82;;
51746;SDS011;37825;40.088;18.302;2023-01-15T11:59:53;15.10;;;12.38;;
51746;SDS011;37825;40.088;18.302;2023-01-15T12:04:58;22.55;;;18.70;;
51746;SDS011;37825;40.088;18.302;2023-01-15T12:07:27;15.45;;;13.32;;
51746;SDS011;37825;40.088;18.302;2023-01-15T12:10:12;17.65;;;15.18;;
51746;SDS011;37825;40.088;18.302;2023-01-15T12:15:17;6.15;;;3.67;;
51746;SDS011;37825;40.088;18.302;2023-01-15T12:17:54;6.43;;;3.83;;
51746;SDS011;37825;40.088;18.302;2023-01-15T12:23:16;4.40;;;3.72;;
51746;SDS011;37825;40.088;18.302;2023-01-15T12:28:18;8.27;;;6.63;;
51746;SDS011;37825;40.088;18.302;2023-01-15T12:31:13;4.07;;;2.95;;
51746;SDS011;37825;40.088;18.302;2023-01-15T12:33:44;5.13;;;4.35;;
51746;SDS011;37825;40.088;18.302;2023-01-15T12:36:18;8.60;;;5.97;;
51746;SDS011;37825;40.088;18.302;2023-01-15T12:38:55;4.10;;;3.70;;
51746;SDS011;37825;40.088;18.302;2023-01-15T12:41:26;4.93;;;4.53;;
51746;SDS011;37825;40.088;18.302;2023-01-15T12:44:18;6.55;;;3.25;;
51746;SDS011;37825;40.088;18.302;2023-01-15T12:47:06;8.30;;;7.00;;
51746;SDS011;37825;40.088;18.302;2023-01-15T12:49:39;3.35;;;2.75;;
51746;SDS011;37825;40.088;18.302;2023-01-15T12:52:13;4.38;;;3.83;;
51746;SDS011;37825;40.088;18.302;2023-01-15T12:57:45;4.60;;;3.30;;
51746;SDS011;37825;40.088;18.302;2023-01-15T13:02:57;2.72;;;2.33;;
51746;SDS011;37825;40.088;18.302;2023-01-15T13:05:30;2.65;;;2.45;;
51746;SDS011;37825;40.088;18.302;2023-01-15T13:10:47;3.47;;;2.80;;
51746;SDS011;37825;40.088;18.302;2023-01-15T13:15:51;4.82;;;2.80;;
51746;SDS011;37825;40.088;18.302;2023-01-15T13:20:59;4.40;;;3.58;;
51746;SDS011;37825;40.088;18.302;2023-01-15T13:34:11;4.07;;;3.75;;
51746;SDS011;37825;40.088;18.302;2023-01-15T13:36:42;10.90;;;8.98;;
51746;SDS011;37825;40.088;18.302;2023-01-15T13:39:16;3.58;;;2.95;;
51746;SDS011;37825;40.088;18.302;2023-01-15T13:41:46;4.32;;;2.92;;
51746;SDS011;37825;40.088;18.302;2023-01-15T13:44:36;2.67;;;1.75;;
51746;SDS011;37825;40.088;18.302;2023-01-15T13:47:09;3.33;;;2.97;;
51746;SDS011;37825;40.088;18.302;2023-01-15T13:49:40;7.03;;;5.82;;
51746;SDS011;37825;40.088;18.302;2023-01-15T13:52:26;19.17;;;17.27;;
51746;SDS011;37825;40.088;18.302;2023-01-15T13:55:38;9.00;;;8.25;;
51746;SDS011;37825;40.088;18.302;2023-01-15T13:57:46;3.53;;;3.03;;
51746;SDS011;37825;40.088;18.302;2023-01-15T14:00:28;10.43;;;9.13;;
51746;SDS011;37825;40.088;18.302;2023-01-15T14:02:58;4.68;;;4.28;;
51746;SDS011;37825;40.088;18.302;2023-01-15T14:05:29;4.70;;;4.20;;
51746;SDS011;37825;40.088;18.302;2023-01-15T14:07:58;2.60;;;2.25;;
51746;SDS011;37825;40.088;18.302;2023-01-15T14:34:30;4.30;;;3.85;;
51746;SDS011;37825;40.088;18.302;2023-01-15T14:37:00;5.28;;;4.28;;
51746;SDS011;37825;40.088;18.302;2023-01-15T14:39:46;4.82;;;4.40;;
51746;SDS011;37825;40.088;18.302;2023-01-15T14:42:23;18.95;;;16.92;;
51746;SDS011;37825;40.088;18.302;2023-01-15T14:53:04;14.27;;;12.73;;
51746;SDS011;37825;40.088;18.302;2023-01-15T14:55:35;9.20;;;7.95;;
51746;SDS011;37825;40.088;18.302;2023-01-15T14:58:06;10.35;;;9.25;;
51746;SDS011;37825;40.088;18.302;2023-01-15T15:00:38;9.63;;;8.55;;
51746;SDS011;37825;40.088;18.302;2023-01-15T15:03:13;8.70;;;7.80;;
51746;SDS011;37825;40.088;18.302;2023-01-15T15:05:44;11.65;;;10.27;;
51746;SDS011;37825;40.088;18.302;2023-01-15T15:08:14;18.15;;;15.95;;
51746;SDS011;37825;40.088;18.302;2023-01-15T15:10:44;24.45;;;20.38;;
51746;SDS011;37825;40.088;18.302;2023-01-15T15:13:15;27.27;;;24.38;;
51746;SDS011;37825;40.088;18.302;2023-01-15T15:15:50;44.63;;;37.60;;
51746;SDS011;37825;40.088;18.302;2023-01-15T15:21:04;123.25;;;99.88;;
51746;SDS011;37825;40.088;18.302;2023-01-15T15:26:24;73.35;;;65.53;;
51746;SDS011;37825;40.088;18.302;2023-01-15T15:28:56;44.13;;;39.55;;
51746;SDS011;37825;40.088;18.302;2023-01-15T15:31:25;26.15;;;23.45;;
51746;SDS011;37825;40.088;18.302;2023-01-15T15:33:54;19.52;;;15.02;;
51746;SDS011;37825;40.088;18.302;2023-01-15T15:36:25;27.90;;;22.77;;
51746;SDS011;37825;40.088;18.302;2023-01-15T15:39:00;25.08;;;22.38;;
51746;SDS011;37825;40.088;18.302;2023-01-15T15:41:30;41.67;;;36.80;;
51746;SDS011;37825;40.088;18.302;2023-01-15T15:44:32;18.20;;;16.35;;
51746;SDS011;37825;40.088;18.302;2023-01-15T15:47:23;18.58;;;14.45;;
51746;SDS011;37825;40.088;18.302;2023-01-15T15:50:20;16.23;;;14.43;;
51746;SDS011;37825;40.088;18.302;2023-01-15T15:52:49;26.95;;;19.48;;
51746;SDS011;37825;40.088;18.302;2023-01-15T15:55:19;15.10;;;13.73;;
51746;SDS011;37825;40.088;18.302;2023-01-15T15:57:52;16.77;;;15.02;;
51746;SDS011;37825;40.088;18.302;2023-01-15T16:00:27;27.08;;;23.45;;
51746;SDS011;37825;40.088;18.302;2023-01-15T16:02:58;29.15;;;22.70;;
51746;SDS011;37825;40.088;18.302;2023-01-15T16:05:28;44.70;;;38.30;;
51746;SDS011;37825;40.088;18.302;2023-01-15T16:08:13;51.33;;;39.75;;
51746;SDS011;37825;40.088;18.302;2023-01-15T16:10:45;42.90;;;37.10;;
51746;SDS011;37825;40.088;18.302;2023-01-15T16:13:20;40.03;;;34.17;;
51746;SDS011;37825;40.088;18.302;2023-01-15T16:15:49;27.93;;;21.97;;
51746;SDS011;37825;40.088;18.302;2023-01-15T16:20:50;25.33;;;22.63;;
51746;SDS011;37825;40.088;18.302;2023-01-15T16:23:20;24.57;;;19.10;;
51746;SDS011;37825;40.088;18.302;2023-01-15T16:28:31;42.53;;;31.03;;
51746;SDS011;37825;40.088;18.302;2023-01-15T16:31:03;37.77;;;28.60;;
51746;SDS011;37825;40.088;18.302;2023-01-15T16:33:32;49.10;;;37.73;;
51746;SDS011;37825;40.088;18.302;2023-01-15T16:36:02;55.40;;;45.83;;
51746;SDS011;37825;40.088;18.302;2023-01-15T16:38:33;32.00;;;25.87;;
51746;SDS011;37825;40.088;18.302;2023-01-15T16:41:02;31.10;;;24.33;;
51746;SDS011;37825;40.088;18.302;2023-01-15T16:43:30;29.60;;;25.00;;
51746;SDS011;37825;40.088;18.302;2023-01-15T16:46:05;26.00;;;23.37;;
51746;SDS011;37825;40.088;18.302;2023-01-15T16:48:35;42.43;;;34.03;;
51746;SDS011;37825;40.088;18.302;2023-01-15T16:53:59;32.77;;;27.47;;
51746;SDS011;37825;40.088;18.302;2023-01-15T16:59:04;29.50;;;26.40;;
51746;SDS011;37825;40.088;18.302;2023-01-15T17:01:43;20.90;;;18.70;;
51746;SDS011;37825;40.088;18.302;2023-01-15T17:04:16;21.17;;;18.93;;
51746;SDS011;37825;40.088;18.302;2023-01-15T17:06:59;29.40;;;26.57;;
51746;SDS011;37825;40.088;18.302;2023-01-15T17:09:29;22.13;;;19.73;;
51746;SDS011;37825;40.088;18.302;2023-01-15T17:11:59;18.67;;;16.67;;